Vroman, Colorado
Current Conditions -  °F | °C
As of 2:53 PM on Monday 26 Jan 2015 (Local Time) from KLHX Reporting Station
Clear Clear  
Wind Chill: 69°   Ceiling: Unl
Heat Index: 69°   Visibility: 10mi
Dew Point: 28°   Wind: 3mph
Humidity: 22%   Direction: 250°WSW
Pressure: 30.2"   Gusts: NA
Location:  37.9684°N, 103.774°W
Report Text: KLHX 262153Z AUTO 25003KT 10SM CLR 21/M02 A3020 RMK AO2 SLP202 T02061022
Loading
Personal Weather Stations






























Interactive Weather Map New forecast layout! Learn more

10-Day Weather Forecast

Advertisements
Track Severe Weather on mobile